createdAt,value
2019-04-07T00:00:22.193Z,0.00
2019-04-07T00:01:21.695Z,0.00
2019-04-07T00:02:22.377Z,0.00
2019-04-07T00:03:21.674Z,0.00
2019-04-07T00:04:21.664Z,0.00
2019-04-07T00:05:21.788Z,0.00
2019-04-07T00:06:21.644Z,0.00
2019-04-07T00:07:21.635Z,0.00
2019-04-07T00:08:21.717Z,0.00
2019-04-07T00:09:22.260Z,0.00
2019-04-07T00:10:21.618Z,0.00
2019-04-07T00:11:21.593Z,0.00
2019-04-07T00:12:21.583Z,0.00
2019-04-07T00:13:21.573Z,0.00
2019-04-07T00:14:21.563Z,0.00
2019-04-07T00:15:21.974Z,0.00
2019-04-07T00:16:21.587Z,0.00
2019-04-07T00:17:21.533Z,0.00
2019-04-07T00:18:21.757Z,0.00
2019-04-07T00:19:21.940Z,0.00
2019-04-07T00:20:22.052Z,0.00
2019-04-07T00:21:22.031Z,0.00
2019-04-07T00:22:21.482Z,0.00
2019-04-07T00:23:21.471Z,0.00
2019-04-07T00:24:21.882Z,0.00
2019-04-07T00:25:21.452Z,0.00
2019-04-07T00:26:21.590Z,0.00
2019-04-07T00:27:21.431Z,0.00
2019-04-07T00:28:21.470Z,0.00
2019-04-07T00:29:21.568Z,0.00
2019-04-07T00:30:21.400Z,0.00
2019-04-07T00:31:21.629Z,0.00
2019-04-07T00:32:21.380Z,0.00
2019-04-07T00:33:21.975Z,0.00
2019-04-07T00:34:22.092Z,0.00
2019-04-07T00:35:28.114Z,0.00
2019-04-07T00:36:21.918Z,0.00
2019-04-07T00:37:21.870Z,0.00
2019-04-07T00:38:21.320Z,0.00
2019-04-07T00:39:21.309Z,0.00
2019-04-07T00:40:22.294Z,0.00
2019-04-07T00:41:21.288Z,0.00
2019-04-07T00:42:21.279Z,0.00
2019-04-07T00:43:21.268Z,0.00
2019-04-07T00:44:21.267Z,0.00
2019-04-07T00:45:21.551Z,0.00
2019-04-07T00:46:21.801Z,0.00
2019-04-07T00:47:21.879Z,0.00
2019-04-07T00:48:21.224Z,0.00
2019-04-07T00:49:21.207Z,0.00
2019-04-07T00:50:21.967Z,0.00
2019-04-07T00:51:21.200Z,0.00
2019-04-07T00:52:21.502Z,0.00
2019-04-07T00:53:21.169Z,0.00
2019-04-07T00:54:21.491Z,0.00
2019-04-07T00:55:21.144Z,0.00
2019-04-07T00:56:21.134Z,0.00
2019-04-07T00:57:21.128Z,0.00
2019-04-07T00:58:21.456Z,0.00
2019-04-07T00:59:21.102Z,0.00
2019-04-07T01:00:21.848Z,0.00
2019-04-07T01:01:21.700Z,0.00
2019-04-07T01:02:21.235Z,0.00
2019-04-07T01:03:21.095Z,0.00
2019-04-07T01:04:21.142Z,0.00
2019-04-07T01:05:33.711Z,0.00
2019-04-07T01:06:21.030Z,0.00
2019-04-07T01:07:21.022Z,0.00
2019-04-07T01:08:21.541Z,0.00
2019-04-07T01:09:20.998Z,0.00
2019-04-07T01:10:21.606Z,0.00
2019-04-07T01:11:21.590Z,0.00
2019-04-07T01:12:21.391Z,0.00
2019-04-07T01:13:20.955Z,0.00
2019-04-07T01:14:21.420Z,0.00
2019-04-07T01:15:20.936Z,0.00
2019-04-07T01:16:20.924Z,0.00
2019-04-07T01:17:21.563Z,0.00
2019-04-07T01:18:20.904Z,0.00
2019-04-07T01:19:21.136Z,0.00
2019-04-07T01:20:20.883Z,0.00
2019-04-07T01:21:20.873Z,0.00
2019-04-07T01:22:20.868Z,0.00
2019-04-07T01:23:20.968Z,0.00
2019-04-07T01:24:21.044Z,0.00
2019-04-07T01:25:21.445Z,0.00
2019-04-07T01:26:20.821Z,0.00
2019-04-07T01:27:20.864Z,0.00
2019-04-07T01:28:20.888Z,0.00
2019-04-07T01:29:20.986Z,0.00
2019-04-07T01:30:21.369Z,0.00
2019-04-07T01:31:20.932Z,0.00
2019-04-07T01:32:21.279Z,0.00
2019-04-07T01:33:20.779Z,0.00
2019-04-07T01:34:20.749Z,0.00
2019-04-07T01:35:21.331Z,0.00
2019-04-07T01:36:20.715Z,0.00
2019-04-07T01:37:20.967Z,0.00
2019-04-07T01:38:21.235Z,0.00
2019-04-07T01:39:20.687Z,0.00
2019-04-07T01:40:21.053Z,0.00
2019-04-07T01:41:20.663Z,0.00
2019-04-07T01:42:21.319Z,0.00
2019-04-07T01:43:20.643Z,0.00
2019-04-07T01:44:20.632Z,0.00
2019-04-07T01:45:20.661Z,0.00
2019-04-07T01:46:20.679Z,0.00
2019-04-07T01:47:21.045Z,0.00
2019-04-07T01:48:20.589Z,0.00
2019-04-07T01:49:20.663Z,0.00
2019-04-07T01:50:21.102Z,0.00
2019-04-07T01:51:21.119Z,0.00
2019-04-07T01:52:21.163Z,0.00
2019-04-07T01:53:21.255Z,0.00
2019-04-07T01:54:20.778Z,0.00
2019-04-07T01:55:20.515Z,0.00
2019-04-07T01:56:20.794Z,0.00
2019-04-07T01:57:20.956Z,0.00
2019-04-07T01:58:20.483Z,0.00
2019-04-07T01:59:20.918Z,0.00
2019-04-07T02:00:20.468Z,0.00
2019-04-07T02:01:20.866Z,0.00
2019-04-07T02:02:20.452Z,0.00
2019-04-07T02:03:20.436Z,0.00
2019-04-07T02:04:20.478Z,0.00
2019-04-07T02:05:20.898Z,0.00
2019-04-07T02:06:21.039Z,0.00
2019-04-07T02:07:20.387Z,0.00
2019-04-07T02:08:20.941Z,0.00
2019-04-07T02:09:20.363Z,0.00
2019-04-07T02:10:20.913Z,0.00
2019-04-07T02:11:21.129Z,0.00
2019-04-07T02:12:20.329Z,0.00
2019-04-07T02:13:20.732Z,0.00
2019-04-07T02:14:20.308Z,0.00
2019-04-07T02:15:20.296Z,0.00
2019-04-07T02:16:20.421Z,0.00
2019-04-07T02:17:20.852Z,0.00
2019-04-07T02:18:20.264Z,0.00
2019-04-07T02:19:20.475Z,0.00
2019-04-07T02:20:20.760Z,0.00
2019-04-07T02:21:20.717Z,0.00
2019-04-07T02:22:20.219Z,0.00
2019-04-07T02:23:20.729Z,0.00
2019-04-07T02:24:20.340Z,0.00
2019-04-07T02:25:20.740Z,0.00
2019-04-07T02:26:20.180Z,0.00
2019-04-07T02:27:20.560Z,0.00
2019-04-07T02:28:20.394Z,0.00
2019-04-07T02:29:20.397Z,0.00
2019-04-07T02:30:20.132Z,0.00
2019-04-07T02:31:21.121Z,0.00
2019-04-07T02:32:20.107Z,0.00
2019-04-07T02:33:20.098Z,0.00
2019-04-07T02:34:20.901Z,0.00
2019-04-07T02:35:20.888Z,0.00
2019-04-07T02:36:25.904Z,0.00
2019-04-07T02:37:20.600Z,0.00
2019-04-07T02:38:20.999Z,0.00
2019-04-07T02:39:20.033Z,0.00
2019-04-07T02:40:20.019Z,0.00
2019-04-07T02:41:20.010Z,0.00
2019-04-07T02:42:20.274Z,0.00
2019-04-07T02:43:19.987Z,0.00
2019-04-07T02:44:19.995Z,0.00
2019-04-07T02:45:19.964Z,0.00
2019-04-07T02:46:20.372Z,0.00
2019-04-07T02:47:20.039Z,0.00
2019-04-07T02:48:20.055Z,0.00
2019-04-07T02:49:20.038Z,0.00
2019-04-07T02:50:19.915Z,0.00
2019-04-07T02:51:20.192Z,0.00
2019-04-07T02:52:19.897Z,0.00
2019-04-07T02:53:19.877Z,0.00
2019-04-07T02:54:20.663Z,0.00
2019-04-07T02:55:19.855Z,0.00
2019-04-07T02:56:20.816Z,0.00
2019-04-07T02:57:20.643Z,0.00
2019-04-07T02:58:20.065Z,0.00
2019-04-07T02:59:19.920Z,0.00
2019-04-07T03:00:20.455Z,0.00
2019-04-07T03:01:20.125Z,0.00
2019-04-07T03:02:20.744Z,0.00
2019-04-07T03:03:20.108Z,0.00
2019-04-07T03:04:20.533Z,0.00
2019-04-07T03:05:19.886Z,0.00
2019-04-07T03:06:34.873Z,0.00
2019-04-07T03:07:20.055Z,0.00
2019-04-07T03:08:19.721Z,0.00
2019-04-07T03:09:20.479Z,0.00
2019-04-07T03:10:19.693Z,0.00
2019-04-07T03:11:20.018Z,0.00
2019-04-07T03:12:19.670Z,0.00
2019-04-07T03:13:19.658Z,0.00
2019-04-07T03:14:19.838Z,0.00
2019-04-07T03:15:19.636Z,0.00
2019-04-07T03:16:19.694Z,0.00
2019-04-07T03:17:20.145Z,0.00
2019-04-07T03:18:20.152Z,0.00
2019-04-07T03:19:19.594Z,0.00
2019-04-07T03:20:19.583Z,0.00
2019-04-07T03:21:19.826Z,0.00
2019-04-07T03:22:20.603Z,0.00
2019-04-07T03:23:20.411Z,0.00
2019-04-07T03:24:19.562Z,0.00
2019-04-07T03:25:20.587Z,0.00
2019-04-07T03:26:20.421Z,0.00
2019-04-07T03:27:19.506Z,0.00
2019-04-07T03:28:19.796Z,0.00
2019-04-07T03:29:20.254Z,0.00
2019-04-07T03:30:20.795Z,0.00
2019-04-07T03:31:21.835Z,0.00
2019-04-07T03:32:23.380Z,0.00
2019-04-07T03:33:22.773Z,0.00
2019-04-07T03:34:20.790Z,0.00
2019-04-07T03:35:22.804Z,0.00
2019-04-07T03:36:21.565Z,0.00
2019-04-07T03:37:33.128Z,0.00
2019-04-07T03:38:20.427Z,0.00
2019-04-07T03:39:20.347Z,0.00
2019-04-07T03:40:20.010Z,0.00
2019-04-07T03:41:19.652Z,0.00
2019-04-07T03:42:19.343Z,0.00
2019-04-07T03:43:19.703Z,0.00
2019-04-07T03:44:19.321Z,0.00
2019-04-07T03:45:20.319Z,0.00
2019-04-07T03:46:19.301Z,0.00
2019-04-07T03:47:20.111Z,0.00
2019-04-07T03:48:19.294Z,0.00
2019-04-07T03:49:20.052Z,0.00
2019-04-07T03:50:19.305Z,0.00
2019-04-07T03:51:20.163Z,0.00
2019-04-07T03:52:19.584Z,0.00
2019-04-07T03:53:20.108Z,0.00
2019-04-07T03:54:19.213Z,0.00
2019-04-07T03:55:20.377Z,0.00
2019-04-07T03:56:20.120Z,0.00
2019-04-07T03:57:19.670Z,0.00
2019-04-07T03:58:19.564Z,0.00
2019-04-07T03:59:20.033Z,0.00
2019-04-07T04:00:19.143Z,0.00
2019-04-07T04:01:19.133Z,0.00
2019-04-07T04:02:19.675Z,0.00
2019-04-07T04:03:19.368Z,0.00
2019-04-07T04:04:19.132Z,0.00
2019-04-07T04:05:19.103Z,0.00
2019-04-07T04:06:19.400Z,0.00
2019-04-07T04:07:29.351Z,0.00
2019-04-07T04:08:19.053Z,0.00
2019-04-07T04:09:19.042Z,0.00
2019-04-07T04:10:19.340Z,0.00
2019-04-07T04:11:19.021Z,0.00
2019-04-07T04:12:19.010Z,0.00
2019-04-07T04:13:19.998Z,0.00
2019-04-07T04:14:18.986Z,0.00
2019-04-07T04:15:18.975Z,0.00
2019-04-07T04:16:19.949Z,0.00
2019-04-07T04:17:19.430Z,0.00
2019-04-07T04:18:18.942Z,0.00
2019-04-07T04:19:18.949Z,0.00
2019-04-07T04:20:19.734Z,0.00
2019-04-07T04:21:19.786Z,0.00
2019-04-07T04:22:18.896Z,0.00
2019-04-07T04:23:19.768Z,0.00
2019-04-07T04:24:19.879Z,0.00
2019-04-07T04:25:19.170Z,4.00
2019-04-07T04:26:18.852Z,4.00
2019-04-07T04:27:18.877Z,4.00
2019-04-07T04:28:19.371Z,0.00
2019-04-07T04:29:18.931Z,0.00
2019-04-07T04:30:19.004Z,4.00
2019-04-07T04:31:19.585Z,4.00
2019-04-07T04:32:18.967Z,4.00
2019-04-07T04:33:18.769Z,8.00
2019-04-07T04:34:19.172Z,4.00
2019-04-07T04:35:18.998Z,4.00
2019-04-07T04:36:18.926Z,8.00
2019-04-07T04:37:34.561Z,8.00
2019-04-07T04:38:18.713Z,12.00
2019-04-07T04:39:20.935Z,8.00
2019-04-07T04:40:19.113Z,12.00
2019-04-07T04:41:18.961Z,16.00
2019-04-07T04:42:18.679Z,20.00
2019-04-07T04:43:18.666Z,20.00
2019-04-07T04:44:18.786Z,24.00
2019-04-07T04:45:18.638Z,28.00
2019-04-07T04:46:18.726Z,28.00
2019-04-07T04:47:19.105Z,36.00
2019-04-07T04:48:19.653Z,40.00
2019-04-07T04:49:19.021Z,44.00
2019-04-07T04:50:18.584Z,52.00
2019-04-07T04:51:18.566Z,64.00
2019-04-07T04:52:18.581Z,68.00
2019-04-07T04:53:18.616Z,80.00
2019-04-07T04:54:19.303Z,92.00
2019-04-07T04:55:18.901Z,100.00
2019-04-07T04:56:18.698Z,112.00
2019-04-07T04:57:18.495Z,124.00
2019-04-07T04:58:19.311Z,136.00
2019-04-07T04:59:18.472Z,148.00
2019-04-07T05:00:18.764Z,168.00
2019-04-07T05:01:18.724Z,188.00
2019-04-07T05:02:18.960Z,204.00
2019-04-07T05:03:19.391Z,224.00
2019-04-07T05:04:18.422Z,248.00
2019-04-07T05:05:18.403Z,272.00
2019-04-07T05:06:18.392Z,300.00
2019-04-07T05:07:19.019Z,320.00
2019-04-07T05:08:18.382Z,352.00
2019-04-07T05:09:18.357Z,384.00
2019-04-07T05:10:19.249Z,416.00
2019-04-07T05:11:18.875Z,444.00
2019-04-07T05:12:18.337Z,472.00
2019-04-07T05:13:18.312Z,488.00
2019-04-07T05:14:18.301Z,504.00
2019-04-07T05:15:18.288Z,532.00
2019-04-07T05:16:18.500Z,568.00
2019-04-07T05:17:18.269Z,608.00
2019-04-07T05:18:18.256Z,640.00
2019-04-07T05:19:18.257Z,668.00
2019-04-07T05:20:18.358Z,712.00
2019-04-07T05:21:18.579Z,744.00
2019-04-07T05:22:18.212Z,780.00
2019-04-07T05:23:18.224Z,816.00
2019-04-07T05:24:18.189Z,832.00
2019-04-07T05:25:18.446Z,832.00
2019-04-07T05:26:18.167Z,844.00
2019-04-07T05:27:18.619Z,868.00
2019-04-07T05:28:18.144Z,884.00
2019-04-07T05:29:18.675Z,896.00
2019-04-07T05:30:18.121Z,904.00
2019-04-07T05:31:18.720Z,916.00
2019-04-07T05:32:18.099Z,940.00
2019-04-07T05:33:18.089Z,972.00
2019-04-07T05:34:20.507Z,1000.00
2019-04-07T05:35:18.738Z,1020.00
2019-04-07T05:36:18.054Z,1036.00
2019-04-07T05:37:18.769Z,1056.00
2019-04-07T05:38:18.031Z,1084.00
2019-04-07T05:39:18.022Z,1124.00
2019-04-07T05:40:18.010Z,1176.00
2019-04-07T05:41:18.365Z,1228.00
2019-04-07T05:42:17.987Z,1284.00
2019-04-07T05:43:18.488Z,1336.00
2019-04-07T05:44:17.964Z,1396.00
2019-04-07T05:45:17.953Z,1472.00
2019-04-07T05:46:17.943Z,1564.00
2019-04-07T05:47:17.933Z,1660.00
2019-04-07T05:48:20.229Z,1768.00
2019-04-07T05:49:18.752Z,1884.00
2019-04-07T05:50:17.898Z,1996.00
2019-04-07T05:51:17.890Z,2104.00
2019-04-07T05:52:18.116Z,2212.00
2019-04-07T05:53:17.866Z,2332.00
2019-04-07T05:54:19.760Z,2468.00
2019-04-07T05:55:20.605Z,2600.00
2019-04-07T05:56:17.832Z,2720.00
2019-04-07T05:57:18.556Z,2832.00
2019-04-07T05:58:18.037Z,2952.00
2019-04-07T05:59:17.802Z,3080.00
2019-04-07T06:00:18.709Z,3200.00
2019-04-07T06:01:21.712Z,3264.00
2019-04-07T06:02:17.902Z,3324.00
2019-04-07T06:03:17.788Z,3384.00
2019-04-07T06:04:19.177Z,3460.00
2019-04-07T06:05:18.612Z,3540.00
2019-04-07T06:06:19.148Z,3624.00
2019-04-07T06:07:17.713Z,3748.00
2019-04-07T06:08:26.864Z,3864.00
2019-04-07T06:09:18.918Z,3964.00
2019-04-07T06:10:18.329Z,4060.00
2019-04-07T06:11:17.669Z,4184.00
2019-04-07T06:12:17.659Z,4312.00
2019-04-07T06:13:17.685Z,4408.00
2019-04-07T06:14:17.638Z,4508.00
2019-04-07T06:15:21.604Z,4592.00
2019-04-07T06:16:19.953Z,4696.00
2019-04-07T06:17:17.622Z,4760.00
2019-04-07T06:18:17.595Z,4800.00
2019-04-07T06:19:18.227Z,4836.00
2019-04-07T06:20:18.042Z,4900.00
2019-04-07T06:21:17.565Z,4960.00
2019-04-07T06:22:19.830Z,5000.00
2019-04-07T06:23:17.767Z,5028.00
2019-04-07T06:24:18.379Z,5076.00
2019-04-07T06:25:17.523Z,5132.00
2019-04-07T06:26:17.633Z,5180.00
2019-04-07T06:27:18.122Z,5196.00
2019-04-07T06:28:19.121Z,5196.00
2019-04-07T06:29:18.247Z,5208.00
2019-04-07T06:30:17.610Z,5184.00
2019-04-07T06:31:17.463Z,5188.00
2019-04-07T06:32:17.772Z,5216.00
2019-04-07T06:33:17.539Z,5256.00
2019-04-07T06:34:17.432Z,5260.00
2019-04-07T06:35:18.174Z,5268.00
2019-04-07T06:36:18.760Z,5320.00
2019-04-07T06:37:17.795Z,5352.00
2019-04-07T06:38:17.723Z,5360.00
2019-04-07T06:39:19.237Z,5356.00
2019-04-07T06:40:20.315Z,5344.00
2019-04-07T06:41:17.446Z,5256.00
2019-04-07T06:42:17.600Z,5268.00
2019-04-07T06:43:18.633Z,5328.00
2019-04-07T06:44:21.118Z,5484.00
2019-04-07T06:45:20.575Z,5604.00
2019-04-07T06:46:17.504Z,5652.00
2019-04-07T06:47:17.970Z,5632.00
2019-04-07T06:48:17.554Z,5672.00
2019-04-07T06:49:17.291Z,5704.00
2019-04-07T06:50:17.932Z,5816.00
2019-04-07T06:51:17.392Z,5908.00
2019-04-07T06:52:17.278Z,6040.00
2019-04-07T06:53:19.952Z,6232.00
2019-04-07T06:54:21.025Z,6376.00
2019-04-07T06:55:17.895Z,6520.00
2019-04-07T06:56:17.558Z,6652.00
2019-04-07T06:57:17.436Z,6804.00
2019-04-07T06:58:17.541Z,6920.00
2019-04-07T06:59:17.679Z,7000.00
2019-04-07T07:00:21.515Z,7080.00
2019-04-07T07:01:17.174Z,6964.00
2019-04-07T07:02:17.478Z,7040.00
2019-04-07T07:03:17.155Z,7048.00
2019-04-07T07:04:17.872Z,7208.00
2019-04-07T07:05:17.810Z,7220.00
2019-04-07T07:06:18.390Z,7108.00
2019-04-07T07:07:18.947Z,7356.00
2019-04-07T07:08:21.611Z,7440.00
2019-04-07T07:09:17.103Z,7468.00
2019-04-07T07:10:26.134Z,7424.00
2019-04-07T07:11:27.575Z,7416.00
2019-04-07T07:12:22.644Z,7416.00
2019-04-07T07:13:28.398Z,7412.00
2019-04-07T07:14:31.208Z,7380.00
2019-04-07T07:15:17.050Z,7324.00
2019-04-07T07:16:17.449Z,7600.00
2019-04-07T07:17:19.507Z,7904.00
2019-04-07T07:18:20.001Z,8136.00
2019-04-07T07:19:17.016Z,8300.00
2019-04-07T07:20:17.648Z,8376.00
2019-04-07T07:21:16.999Z,9012.00
2019-04-07T07:22:17.503Z,9756.00
2019-04-07T07:23:17.009Z,10080.00
2019-04-07T07:24:22.495Z,10324.00
2019-04-07T07:25:17.063Z,10460.00
2019-04-07T07:26:17.188Z,10548.00
2019-04-07T07:27:17.570Z,10684.00
2019-04-07T07:28:17.338Z,10788.00
2019-04-07T07:29:18.038Z,10892.00
2019-04-07T07:30:18.370Z,10956.00
2019-04-07T07:31:18.150Z,11000.00
2019-04-07T07:32:17.017Z,11148.00
2019-04-07T07:33:16.914Z,11228.00
2019-04-07T07:34:17.662Z,11272.00
2019-04-07T07:35:16.910Z,11388.00
2019-04-07T07:36:18.355Z,11444.00
2019-04-07T07:37:16.900Z,11572.00
2019-04-07T07:38:16.894Z,11688.00
2019-04-07T07:39:17.606Z,11764.00
2019-04-07T07:40:18.344Z,11800.00
2019-04-07T07:41:19.193Z,11832.00
2019-04-07T07:42:19.102Z,12012.00
2019-04-07T07:43:17.494Z,12072.00
2019-04-07T07:44:17.578Z,12160.00
2019-04-07T07:45:17.494Z,12212.00
2019-04-07T07:46:20.597Z,12360.00
2019-04-07T07:47:17.655Z,12348.00
2019-04-07T07:48:17.484Z,12440.00
2019-04-07T07:49:16.873Z,12564.00
2019-04-07T07:50:16.871Z,12768.00
2019-04-07T07:51:16.870Z,12740.00
2019-04-07T07:52:19.666Z,12924.00
2019-04-07T07:53:16.933Z,12952.00
2019-04-07T07:54:17.294Z,13036.00
2019-04-07T07:55:17.269Z,13112.00
2019-04-07T07:56:17.023Z,13208.00
2019-04-07T07:57:21.021Z,13400.00
2019-04-07T07:58:16.871Z,13484.00
2019-04-07T07:59:17.749Z,13520.00
2019-04-07T08:00:17.003Z,13588.00
2019-04-07T08:01:17.750Z,13828.00
2019-04-07T08:02:19.454Z,13852.00
2019-04-07T08:03:18.921Z,13944.00
2019-04-07T08:04:17.375Z,13940.00
2019-04-07T08:05:17.153Z,14052.00
2019-04-07T08:06:17.335Z,14100.00
2019-04-07T08:07:16.892Z,14132.00
2019-04-07T08:08:16.887Z,14192.00
2019-04-07T08:09:21.441Z,14164.00
2019-04-07T08:10:17.096Z,14188.00
2019-04-07T08:11:17.643Z,14372.00
2019-04-07T08:12:17.353Z,14604.00
2019-04-07T08:13:16.942Z,14676.00
2019-04-07T08:14:18.335Z,14800.00
2019-04-07T08:15:17.056Z,14812.00
2019-04-07T08:16:17.399Z,14872.00
2019-04-07T08:17:17.288Z,14964.00
2019-04-07T08:18:19.570Z,15096.00
2019-04-07T08:19:16.918Z,15064.00
2019-04-07T08:20:17.477Z,15224.00
2019-04-07T08:21:19.099Z,15352.00
2019-04-07T08:22:27.553Z,15424.00
2019-04-07T08:23:16.930Z,15484.00
2019-04-07T08:24:17.667Z,15808.00
2019-04-07T08:25:20.385Z,15936.00
2019-04-07T08:26:16.942Z,16000.00
2019-04-07T08:27:16.944Z,16064.00
2019-04-07T08:28:19.565Z,16256.00
2019-04-07T08:29:17.008Z,16288.00
2019-04-07T08:30:17.384Z,16352.00
2019-04-07T08:31:20.538Z,16288.00
2019-04-07T08:32:17.637Z,16480.00
2019-04-07T08:33:16.963Z,16416.00
2019-04-07T08:34:17.818Z,16544.00
2019-04-07T08:35:17.622Z,16544.00
2019-04-07T08:36:17.217Z,16640.00
2019-04-07T08:37:17.873Z,16640.00
2019-04-07T08:38:19.954Z,16640.00
2019-04-07T08:39:23.765Z,16480.00
2019-04-07T08:40:16.985Z,16576.00
2019-04-07T08:41:16.998Z,16704.00
2019-04-07T08:42:18.698Z,16768.00
2019-04-07T08:43:20.055Z,16896.00
2019-04-07T08:44:17.160Z,16896.00
2019-04-07T08:45:17.889Z,16800.00
2019-04-07T08:46:17.010Z,16800.00
2019-04-07T08:47:21.796Z,16896.00
2019-04-07T08:48:19.321Z,16992.00
2019-04-07T08:49:17.035Z,17056.00
2019-04-07T08:50:17.028Z,16992.00
2019-04-07T08:51:17.033Z,16992.00
2019-04-07T08:52:17.440Z,17152.00
2019-04-07T08:53:17.046Z,17280.00
2019-04-07T08:54:18.453Z,17280.00
2019-04-07T08:55:20.039Z,17216.00
2019-04-07T08:56:17.819Z,17312.00
2019-04-07T08:57:17.065Z,17408.00
2019-04-07T08:58:24.999Z,17472.00
2019-04-07T08:59:17.309Z,17376.00
2019-04-07T09:00:17.538Z,17504.00
2019-04-07T09:01:20.301Z,17536.00
2019-04-07T09:02:18.967Z,17664.00
2019-04-07T09:03:17.205Z,17664.00
2019-04-07T09:04:17.853Z,17696.00
2019-04-07T09:05:20.250Z,17728.00
2019-04-07T09:06:17.338Z,17920.00
2019-04-07T09:07:17.533Z,17952.00
2019-04-07T09:08:17.929Z,18240.00
2019-04-07T09:09:17.136Z,18208.00
2019-04-07T09:10:20.428Z,18272.00
2019-04-07T09:11:19.996Z,18272.00
2019-04-07T09:12:17.506Z,18336.00
2019-04-07T09:13:17.474Z,18304.00
2019-04-07T09:14:17.623Z,18400.00
2019-04-07T09:15:17.820Z,18432.00
2019-04-07T09:16:17.753Z,18400.00
2019-04-07T09:17:29.319Z,18336.00
2019-04-07T09:18:18.072Z,18272.00
2019-04-07T09:19:17.200Z,18240.00
2019-04-07T09:20:17.926Z,18400.00
2019-04-07T09:21:19.948Z,18560.00
2019-04-07T09:22:20.075Z,18656.00
2019-04-07T09:23:17.581Z,18752.00
2019-04-07T09:24:17.699Z,18816.00
2019-04-07T09:25:17.241Z,19008.00
2019-04-07T09:26:19.922Z,18976.00
2019-04-07T09:27:20.974Z,18720.00
2019-04-07T09:28:19.944Z,18752.00
2019-04-07T09:29:17.302Z,18784.00
2019-04-07T09:30:17.275Z,18880.00
2019-04-07T09:31:17.590Z,18976.00
2019-04-07T09:32:17.841Z,19040.00
2019-04-07T09:33:18.073Z,19040.00
2019-04-07T09:34:20.081Z,19040.00
2019-04-07T09:35:17.731Z,19008.00
2019-04-07T09:36:17.995Z,18912.00
2019-04-07T09:37:18.488Z,19008.00
2019-04-07T09:38:17.716Z,18912.00
2019-04-07T09:39:17.652Z,18848.00
2019-04-07T09:40:17.802Z,19008.00
2019-04-07T09:41:21.665Z,19200.00
2019-04-07T09:42:18.609Z,19328.00
2019-04-07T09:43:18.910Z,19360.00
2019-04-07T09:44:17.408Z,19392.00
2019-04-07T09:45:17.459Z,19552.00
2019-04-07T09:46:18.003Z,19456.00
2019-04-07T09:47:17.904Z,19520.00
2019-04-07T09:48:19.878Z,19584.00
2019-04-07T09:49:17.399Z,19616.00
2019-04-07T09:50:17.477Z,19680.00
2019-04-07T09:51:17.687Z,19776.00
2019-04-07T09:52:17.855Z,19808.00
2019-04-07T09:53:18.895Z,19744.00
2019-04-07T09:54:20.648Z,19744.00
2019-04-07T09:55:17.854Z,19744.00
2019-04-07T09:56:17.448Z,19680.00
2019-04-07T09:57:17.989Z,19616.00
2019-04-07T09:58:18.202Z,19808.00
2019-04-07T09:59:19.249Z,20032.00
2019-04-07T10:00:17.479Z,19968.00
2019-04-07T10:01:20.017Z,19936.00
2019-04-07T10:02:17.494Z,19840.00
2019-04-07T10:03:18.122Z,19840.00
2019-04-07T10:04:17.510Z,19744.00
2019-04-07T10:05:17.518Z,19520.00
2019-04-07T10:06:17.526Z,19392.00
2019-04-07T10:07:18.308Z,19520.00
2019-04-07T10:08:18.937Z,19616.00
2019-04-07T10:09:18.306Z,19808.00
2019-04-07T10:10:17.558Z,19776.00
2019-04-07T10:11:17.565Z,19776.00
2019-04-07T10:12:18.437Z,19904.00
2019-04-07T10:13:17.837Z,19808.00
2019-04-07T10:14:18.416Z,19808.00
2019-04-07T10:15:17.749Z,19968.00
2019-04-07T10:16:17.605Z,19840.00
2019-04-07T10:17:17.760Z,19776.00
2019-04-07T10:18:17.922Z,20000.00
2019-04-07T10:19:18.021Z,20032.00
2019-04-07T10:20:17.962Z,20192.00
2019-04-07T10:21:18.317Z,20224.00
2019-04-07T10:22:17.656Z,20352.00
2019-04-07T10:23:17.689Z,20832.00
2019-04-07T10:24:18.490Z,21120.00
2019-04-07T10:25:17.682Z,21600.00
2019-04-07T10:26:17.934Z,21600.00
2019-04-07T10:27:18.707Z,21792.00
2019-04-07T10:28:17.781Z,22016.00
2019-04-07T10:29:17.734Z,22304.00
2019-04-07T10:30:17.727Z,22688.00
2019-04-07T10:31:19.770Z,23168.00
2019-04-07T10:32:17.900Z,23552.00
2019-04-07T10:33:17.993Z,23840.00
2019-04-07T10:34:18.246Z,24032.00
2019-04-07T10:35:17.934Z,23904.00
2019-04-07T10:36:17.780Z,24192.00
2019-04-07T10:37:17.789Z,24096.00
2019-04-07T10:38:17.799Z,24704.00
2019-04-07T10:39:18.622Z,24864.00
2019-04-07T10:40:21.824Z,25728.00
2019-04-07T10:41:18.379Z,26496.00
2019-04-07T10:42:18.060Z,27296.00
2019-04-07T10:43:18.489Z,27936.00
2019-04-07T10:44:17.925Z,29088.00
2019-04-07T10:45:17.860Z,29888.00
2019-04-07T10:46:17.962Z,30560.00
2019-04-07T10:47:18.380Z,30432.00
2019-04-07T10:48:17.991Z,30528.00
2019-04-07T10:49:17.895Z,32480.00
2019-04-07T10:50:17.997Z,34816.00
2019-04-07T10:51:18.456Z,36096.00
2019-04-07T10:52:18.021Z,37728.00
2019-04-07T10:53:17.929Z,41312.00
2019-04-07T10:54:17.938Z,49152.00
2019-04-07T10:55:17.946Z,52160.00
2019-04-07T10:56:18.741Z,57024.00
2019-04-07T10:57:18.816Z,60032.00
2019-04-07T10:58:18.002Z,63296.00
2019-04-07T10:59:17.994Z,66560.00
2019-04-07T11:00:17.988Z,69280.00
2019-04-07T11:01:17.996Z,68288.00
2019-04-07T11:02:18.145Z,67872.00
2019-04-07T11:03:18.610Z,69888.00
2019-04-07T11:04:18.020Z,66656.00
2019-04-07T11:05:18.578Z,65600.00
2019-04-07T11:06:18.142Z,61856.00
2019-04-07T11:07:18.777Z,60736.00
2019-04-07T11:08:18.250Z,56160.00
2019-04-07T11:09:18.168Z,56512.00
2019-04-07T11:10:29.866Z,53184.00
2019-04-07T11:11:18.100Z,53504.00
2019-04-07T11:12:18.082Z,53632.00
2019-04-07T11:13:18.580Z,52864.00
2019-04-07T11:14:18.500Z,50144.00
2019-04-07T11:15:18.466Z,51392.00
2019-04-07T11:16:18.566Z,51808.00
2019-04-07T11:17:18.121Z,51712.00
2019-04-07T11:18:19.064Z,53088.00
2019-04-07T11:19:18.138Z,51840.00
2019-04-07T11:20:18.145Z,50272.00
2019-04-07T11:21:18.176Z,52448.00
2019-04-07T11:22:18.775Z,51648.00
2019-04-07T11:23:18.168Z,50880.00
2019-04-07T11:24:18.748Z,49728.00
2019-04-07T11:25:18.362Z,50656.00
2019-04-07T11:26:18.195Z,48960.00
2019-04-07T11:27:19.049Z,49376.00
2019-04-07T11:28:18.207Z,48896.00
2019-04-07T11:29:18.218Z,49600.00
2019-04-07T11:30:18.370Z,54528.00
2019-04-07T11:31:18.850Z,55392.00
2019-04-07T11:32:18.236Z,55040.00
2019-04-07T11:33:18.336Z,52224.00
2019-04-07T11:34:18.250Z,55008.00
2019-04-07T11:35:18.258Z,52736.00
2019-04-07T11:36:21.278Z,55040.00
2019-04-07T11:37:18.935Z,52736.00
2019-04-07T11:38:19.116Z,52864.00
2019-04-07T11:39:18.936Z,57440.00
2019-04-07T11:40:18.292Z,52640.00
2019-04-07T11:41:21.536Z,59392.00
2019-04-07T11:42:18.475Z,58048.00
2019-04-07T11:43:18.315Z,62624.00
2019-04-07T11:44:20.180Z,62560.00
2019-04-07T11:45:18.333Z,59264.00
2019-04-07T11:46:18.827Z,62976.00
2019-04-07T11:47:18.577Z,61856.00
2019-04-07T11:48:18.350Z,61024.00
2019-04-07T11:49:19.398Z,59008.00
2019-04-07T11:50:18.914Z,59392.00
2019-04-07T11:51:18.522Z,58656.00
2019-04-07T11:52:18.379Z,62656.00
2019-04-07T11:53:18.386Z,62880.00
2019-04-07T11:54:18.393Z,62624.00
2019-04-07T11:55:18.494Z,66560.00
2019-04-07T11:56:18.407Z,66912.00
2019-04-07T11:57:18.414Z,66720.00
2019-04-07T11:58:25.976Z,67648.00
2019-04-07T11:59:18.441Z,66144.00
2019-04-07T12:00:18.469Z,59872.00
2019-04-07T12:01:18.770Z,59072.00
2019-04-07T12:02:19.789Z,55776.00
2019-04-07T12:03:19.194Z,52896.00
2019-04-07T12:04:18.578Z,36768.00
2019-04-07T12:05:18.467Z,19392.00
2019-04-07T12:06:19.180Z,14248.00
2019-04-07T12:07:20.376Z,13608.00
2019-04-07T12:08:18.550Z,13424.00
2019-04-07T12:09:18.488Z,13244.00
2019-04-07T12:10:18.494Z,12932.00
2019-04-07T12:11:18.498Z,12608.00
2019-04-07T12:12:18.504Z,12436.00
2019-04-07T12:13:18.509Z,12136.00
2019-04-07T12:14:19.169Z,12068.00
2019-04-07T12:15:22.041Z,12764.00
2019-04-07T12:16:18.591Z,15616.00
2019-04-07T12:17:18.819Z,25760.00
2019-04-07T12:18:19.256Z,34016.00
2019-04-07T12:19:22.790Z,31968.00
2019-04-07T12:20:18.548Z,20448.00
2019-04-07T12:21:22.618Z,12632.00
2019-04-07T12:22:18.554Z,11920.00
2019-04-07T12:23:23.385Z,11732.00
2019-04-07T12:24:18.947Z,11592.00